Logo AVAMET
Benvolgut visitant, si us plau, ingressa Recuperar contrasenya
AVAMET paisatges
Union Alcoyana

Xàbia Centre Històric

Dades diàries. Acumulats / Últims 30 dies disponibles

Data Temperatura (°C) Humitat rel. (%) Pressió rel. (hPa) Vent (km/h) Precipitació
Mínima Mitjana Màxima Amplitud
tèrmica
Mínima Mitjana Màxima Mínima Mitjana Màxima Predom. Mitjana Ràfega
màxima
Total
(mm)
Índex-n
Mínima Mitjana Màxima Mínima Mitjana Màxima n
0 a 1
P0 max
mm 5'
Dades mensuals acumulades fins l'últim dia disponible
09/2021 16,7 22,2 25,0 25,2 21,4 28,4 31,2 14,5 41 76 95 1.010 1.015 1.021   8,5 56,3 104,0
Dades anuals acumulades fins l'últim dia disponible
2021 3,8 16,5 26,7 19,3 8,9 22,4 40,4 36,6 0 74 96 0 1.016 1.036   9,3 103,0 525,0
Últims 30 dies disponibles
21-09-2021 16,7     19,7     21,4 4,7 67 84 95 1.019 1.020 1.021 ENE 11,6 46,7 63,6 0,56 15,00
20-09-2021 18,0     22,9     25,6 7,6 60 73 93 1.017 1.018 1.019 E 9,2 37,0 37,6 0,68 20,80
19-09-2021 22,1     24,0     25,5 3,4 56 69 88 1.013 1.017 1.019 ENE 8,9 45,1 0,0
18-09-2021 22,0     25,0     27,8 5,8 63 77 86 1.011 1.013 1.014 SW 11,7 46,7 0,0
17-09-2021 19,7     23,5     27,3 7,6 69 81 92 1.013 1.015 1.018 WSW 8,4 35,4 0,0
16-09-2021 21,6     25,2     29,5 7,9 49 68 90 1.014 1.016 1.018 SW 8,7 43,5 2,2
15-09-2021 23,2     25,9     30,8 7,6 55 74 84 1.010 1.013 1.015 SW 10,3 56,3 0,0
14-09-2021 24,7     26,6     30,1 5,4 49 76 88 1.010 1.012 1.016 NNW 7,6 35,4 0,0
13-09-2021 23,0     25,6     27,8 4,8 58 74 85 1.015 1.015 1.017 SW 5,5 27,4 0,0
12-09-2021 22,7     26,2     30,5 7,8 49 71 85 1.013 1.015 1.016 WSW 7,1 27,4 0,0
11-09-2021 22,9     26,3     29,9 7,0 54 71 80 1.015 1.017 1.019 SW 7,9 35,4 0,0
10-09-2021 23,6     26,7     30,1 6,5 47 74 87 1.013 1.015 1.017 NNW 8,0 27,4 0,0
09-09-2021 24,4     26,4     28,7 4,3 48 70 90 1.011 1.012 1.013 NNW 9,8 33,8 0,0
08-09-2021 22,7     26,1     30,3 7,6 64 81 90 1.010 1.013 1.016 SW 6,9 32,2 0,0
07-09-2021 24,3     26,5     28,4 4,1 49 74 85 1.016 1.018 1.020 E 6,3 24,1 0,0
06-09-2021 22,1     26,3     31,2 9,1 41 76 90 1.018 1.019 1.020 W 7,2 30,6 0,0
05-09-2021 22,3     25,7     29,4 7,1 67 81 89 1.016 1.017 1.018 W 6,8 24,1 0,0
04-09-2021 22,6     25,4     28,8 6,2 73 84 91 1.014 1.015 1.016 E 7,1 27,4 0,0
03-09-2021 21,6     24,9     28,9 7,3 69 80 88 1.013 1.015 1.017 SW 7,6 29,0 0,0
02-09-2021 20,2     23,4     27,0 6,8 68 79 91 1.014 1.016 1.017 NNW 11,7 49,9 0,0
01-09-2021 25,0     26,1     27,4 2,4 76 81 88 1.013 1.015 1.017 ENE 10,3 32,2 0,6
31-08-2021 22,5     25,3     27,6 5,1 72 81 90 1.014 1.015 1.017 S 8,7 30,6 0,0
30-08-2021 24,2     25,8     28,2 4,0 73 83 88 1.011 1.012 1.015 E 6,1 27,4 0,0
29-08-2021 24,2     26,3     28,6 4,4 75 84 90 1.011 1.013 1.014 SE 7,4 27,4 0,0
28-08-2021 24,3     26,8     28,9 4,6 59 80 88 1.011 1.012 1.013 NNW 7,9 33,8 0,0
27-08-2021 23,0     27,5     32,2 9,2 53 72 87 1.010 1.012 1.013 SW 10,5 40,2 0,0
26-08-2021 23,1     26,4     29,6 6,5 62 77 86 1.012 1.013 1.014 SW 9,5 37,0 0,0
25-08-2021 22,1     25,4     28,2 6,1 69 79 88 1.011 1.013 1.015 E 7,1 41,8 0,0
24-08-2021 23,4     26,1     28,1 4,7 68 78 88 1.011 1.014 1.017 E 7,2 27,4 0,0
23-08-2021 24,8     26,6     28,9 4,1 67 83 91 1.014 1.017 1.018 NNW 12,7 38,6 0,0
Últims 13 mesos disponibles
08/2021 20,6 23,7 26,7 26,5 26,3 29,9 40,4 19,8 61 77 84 1.005 1.013 1.019 NNW 8,8 54,7 0,2
07/2021 19,7 22,7 25,6 25,7 25,3 29,2 35,7 16,0 57 75 84 1.002 1.014 1.021 SW 9,0 54,7 0,0
06/2021 17,6 20,4 23,2 23,1 21,2 26,0 29,8 12,2 53 75 90 1.010 1.016 1.021 NNW 8,6 45,1 7,4
05/2021 13,4 16,1 19,9 19,2 17,4 22,8 31,2 17,8 46 73 90 1.009 1.016 1.023 NNW 10,0 61,2 58,6
04/2021 8,7 12,5 14,7 15,0 13,7 17,6 22,9 14,2 63 80 93 1.005 1.015 1.025 NNW 8,6 51,5 62,8
03/2021 7,2 11,0 13,7 13,4 11,5 16,3 22,1 14,9 54 79 93 1.013 1.022 1.029 NNW 10,1 56,3 141,0
02/2021 8,5 12,0 17,6 14,5 14,5 17,4 23,5 15,0 46 72 88 1.002 1.018 1.034 WNW 9,1 74,0 0,0
01/2021 3,8 9,3 17,2 12,5 8,9 15,8 26,4 22,6 43 63 92 1.005 1.016 1.027 WNW 10,3 103,0 151,0
12/2020 5,5 10,5 17,1 13,7 13,1 17,1 22,8 17,3 36 61 86 998 1.014 1.027 WNW 10,4 75,6 4,0
11/2020 9,6 13,8 18,9 16,7 14,7 19,7 24,2 14,6 71 82 91 1.005 1.021 1.029 W 7,0 74,0 203,4
10/2020 12,3 15,9 18,9 19,6 19,1 23,2 29,5 17,2 42 63 84 998 1.017 1.025 W 8,5 70,8 9,2
09/2020 16,8 20,5 24,0 23,7 23,4 27,0 30,7 13,9 39 68 81 1.011 1.017 1.023 W 7,8 57,9 6,0
08/2020 17,9 23,8 26,4 26,9 24,3 30,3 34,0 16,1 54 72 85 1.004 1.014 1.019 SW 8,8 66,0 46,0
Tots els anys disponibles
2020 5,5 16,0 26,4 19,2 12,9 22,6 34,0 28,5 34 71 94 998 1.018 1.033 W 8,6 96,6 549,0
2019 4,9 15,5 26,3 18,8 11,4 22,3 35,1 30,2 19 68 92 994 1.017 1.033 W 8,5 75,6 882,9
2018 4,4 15,9 27,3 19,1 8,2 22,9 36,9 32,5 34 78 93 998 1.017 1.028 W 8,2 72,2 675,6
2017 1,1 15,8 27,2 19,3 9,4 23,0 35,5 34,4 63 66 67 1.017 1.017 1.018 8,0 80,0 486,2
2016 4,4 16,1 26,7 19,5 12,4 22,9 38,0 33,6 55 64 78 1.014 1.018 1.025 8,5 67,0 367,4
Temperatura (°C)
Humitat relativa (%)
Velocitat del vent i ràfega màxima (km/h)
Direcció del vent (°)
Pressió (hPa)
Precipitació (mm)
Nota sobre les dades: s'avisa a l'usuari de la provisionalitat i no oficialitat d'aquestes dades
Logo AVAMET blanc
Web allotjada a Sollutia
Llicència de Creative CommonsLa web d'AVAMET i els seus continguts estan subjectes a una llicència de
Reconeixement - No Comercial - Compartir igual
Avís legal - Política de privacitat - Política de cookies
NOVES ESTACIONS: Cotes - Cementeri (Soci), Llucena (Ajuntament Soci), la Pobla de Vallbona els Racons (Soci), Ares del Maestrat (Electra del Maestrazgo/Soci) - - -